createdAt,value
2022-10-29T00:02:09.475Z,982.21
2022-10-29T00:07:41.074Z,982.09
2022-10-29T00:13:12.934Z,982.0
2022-10-29T00:18:44.538Z,981.78
2022-10-29T00:24:16.061Z,981.91
2022-10-29T00:29:48.338Z,981.94
2022-10-29T00:35:19.888Z,981.93
2022-10-29T00:40:55.762Z,981.98
2022-10-29T00:46:27.723Z,981.7
2022-10-29T00:51:59.738Z,981.72
2022-10-29T00:57:30.967Z,982.16
2022-10-29T01:03:02.683Z,982.36
2022-10-29T01:08:34.554Z,982.19
2022-10-29T01:14:05.970Z,982.22
2022-10-29T01:19:37.739Z,982.39
2022-10-29T01:25:09.566Z,982.21
2022-10-29T01:30:41.295Z,982.47
2022-10-29T01:36:12.998Z,982.56
2022-10-29T01:41:49.104Z,982.72
2022-10-29T01:47:20.713Z,982.64
2022-10-29T01:52:52.634Z,982.56
2022-10-29T01:58:24.067Z,982.51
2022-10-29T02:03:56.042Z,982.46
2022-10-29T02:09:27.550Z,982.33
2022-10-29T02:15:00.042Z,982.31
2022-10-29T02:20:30.929Z,982.36
2022-10-29T02:26:02.902Z,982.38
2022-10-29T02:31:34.423Z,982.5
2022-10-29T02:37:06.430Z,982.44
2022-10-29T02:42:42.323Z,982.78
2022-10-29T02:48:14.052Z,982.68
2022-10-29T02:53:45.880Z,982.66
2022-10-29T02:59:18.001Z,982.78
2022-10-29T03:04:49.143Z,982.69
2022-10-29T03:10:20.895Z,982.45
2022-10-29T03:15:53.507Z,982.61
2022-10-29T03:21:24.472Z,982.4
2022-10-29T03:26:56.143Z,982.55
2022-10-29T03:32:27.849Z,982.58
2022-10-29T03:37:59.772Z,982.42
2022-10-29T03:43:35.732Z,982.48
2022-10-29T03:49:07.348Z,982.36
2022-10-29T03:54:39.594Z,982.43
2022-10-29T04:00:11.105Z,982.61
2022-10-29T04:05:42.618Z,982.76
2022-10-29T04:11:15.161Z,982.84
2022-10-29T04:16:46.307Z,982.97
2022-10-29T04:28:44.390Z,982.94
2022-10-29T04:33:21.114Z,983.26
2022-10-29T04:38:52.823Z,983.15
2022-10-29T04:44:31.129Z,983.22
2022-10-29T04:50:02.704Z,982.98
2022-10-29T04:55:34.612Z,983.06
2022-10-29T05:01:07.425Z,983.09
2022-10-29T05:06:37.810Z,982.97
2022-10-29T05:12:09.632Z,983.02
2022-10-29T05:17:41.366Z,982.83
2022-10-29T05:23:13.322Z,982.63
2022-10-29T05:28:44.840Z,982.72
2022-10-29T05:34:16.594Z,982.72
2022-10-29T05:39:48.325Z,982.71
2022-10-29T05:45:24.494Z,982.73
2022-10-29T05:50:56.201Z,982.53
2022-10-29T05:56:28.044Z,982.81
2022-10-29T06:02:00.106Z,982.94
2022-10-29T06:07:31.337Z,983.02
2022-10-29T06:13:03.106Z,982.98
2022-10-29T06:18:35.082Z,983.05
2022-10-29T06:24:06.635Z,983.15
2022-10-29T06:29:38.507Z,983.14
2022-10-29T06:35:09.970Z,983.12
2022-10-29T06:40:41.766Z,983.27
2022-10-29T06:46:18.078Z,983.51
2022-10-29T06:51:49.563Z,983.53
2022-10-29T06:57:21.310Z,983.61
2022-10-29T07:02:54.310Z,983.83
2022-10-29T07:08:24.950Z,983.86
2022-10-29T07:13:56.578Z,983.95
2022-10-29T07:19:28.338Z,984.34
2022-10-29T07:25:02.226Z,984.67
2022-10-29T07:30:31.621Z,984.89
2022-10-29T07:36:03.503Z,984.89
2022-10-29T07:41:35.130Z,984.96
2022-10-29T07:47:13.250Z,985.25
2022-10-29T07:52:45.582Z,985.6
2022-10-29T07:58:18.398Z,985.94
2022-10-29T08:03:50.070Z,986.2
2022-10-29T08:09:21.837Z,986.27
2022-10-29T08:14:54.518Z,986.2
2022-10-29T08:20:25.313Z,986.01
2022-10-29T08:25:56.954Z,986.04
2022-10-29T08:31:28.655Z,986.23
2022-10-29T08:37:00.338Z,986.11
2022-10-29T08:42:32.069Z,986.22
2022-10-29T08:48:08.226Z,986.15
2022-10-29T08:53:39.938Z,986.09
2022-10-29T08:59:11.747Z,986.22
2022-10-29T09:04:43.486Z,986.39
2022-10-29T09:10:15.287Z,986.96
2022-10-29T09:15:46.837Z,986.94
2022-10-29T09:21:18.789Z,987.14
2022-10-29T09:26:50.447Z,987.19
2022-10-29T09:32:22.897Z,987.0
2022-10-29T09:37:54.775Z,987.25
2022-10-29T09:43:28.569Z,987.53
2022-10-29T09:49:04.670Z,987.43
2022-10-29T09:54:36.828Z,987.55
2022-10-29T10:00:08.103Z,987.14
2022-10-29T10:05:39.798Z,987.23
2022-10-29T10:11:11.538Z,986.76
2022-10-29T10:16:44.167Z,987.09
2022-10-29T10:22:17.298Z,987.16
2022-10-29T10:27:46.794Z,987.04
2022-10-29T10:33:18.645Z,987.13
2022-10-29T10:38:50.214Z,986.94
2022-10-29T10:44:22.077Z,987.1
2022-10-29T10:49:57.897Z,986.72
2022-10-29T10:55:29.713Z,986.57
2022-10-29T11:01:02.493Z,986.87
2022-10-29T11:06:33.256Z,986.79
2022-10-29T11:12:04.948Z,986.7
2022-10-29T11:17:36.710Z,986.69
2022-10-29T11:23:08.338Z,986.16
2022-10-29T11:28:39.983Z,986.73
2022-10-29T11:34:11.784Z,986.74
2022-10-29T11:39:43.765Z,986.57
2022-10-29T11:45:15.178Z,986.3
2022-10-29T11:50:51.772Z,985.66
2022-10-29T11:56:23.247Z,985.86
2022-10-29T12:01:54.957Z,985.74
2022-10-29T12:07:26.551Z,985.63
2022-10-29T12:12:58.377Z,985.68
2022-10-29T12:18:29.990Z,985.46
2022-10-29T12:24:01.972Z,985.08
2022-10-29T12:29:33.499Z,984.82
2022-10-29T12:35:05.487Z,984.9
2022-10-29T12:40:36.955Z,984.68
2022-10-29T12:46:21.975Z,984.53
2022-10-29T12:51:44.886Z,984.08
2022-10-29T12:57:16.598Z,984.0
2022-10-29T13:02:48.767Z,983.66
2022-10-29T13:08:20.039Z,983.61
2022-10-29T13:13:51.989Z,983.43
2022-10-29T13:19:23.430Z,983.28
2022-10-29T13:24:55.120Z,982.8
2022-10-29T13:30:27.077Z,982.99
2022-10-29T13:35:58.634Z,983.04
2022-10-29T13:41:30.442Z,982.79
2022-10-29T13:47:02.541Z,982.33
2022-10-29T13:52:38.387Z,982.56
2022-10-29T13:58:10.022Z,982.64
2022-10-29T14:03:42.199Z,982.26
2022-10-29T14:09:13.903Z,982.31
2022-10-29T14:14:46.599Z,982.38
2022-10-29T14:20:17.326Z,982.46
2022-10-29T14:25:49.133Z,982.2
2022-10-29T14:31:20.910Z,981.99
2022-10-29T14:36:52.629Z,982.1
2022-10-29T14:42:24.371Z,981.87
2022-10-29T14:47:56.058Z,981.66
2022-10-29T14:53:32.171Z,981.57
2022-10-29T14:59:03.913Z,981.5
2022-10-29T15:04:35.654Z,981.19
2022-10-29T15:10:07.439Z,981.22
2022-10-29T15:15:39.168Z,981.08
2022-10-29T15:21:10.939Z,980.94
2022-10-29T15:26:42.667Z,980.77
2022-10-29T15:32:14.324Z,980.65
2022-10-29T15:37:46.055Z,980.5
2022-10-29T15:43:17.756Z,980.4
2022-10-29T15:48:49.603Z,980.34
2022-10-29T15:54:25.727Z,980.38
2022-10-29T15:59:57.788Z,980.32
2022-10-29T16:05:29.265Z,980.21
2022-10-29T16:11:00.991Z,980.21
2022-10-29T16:16:32.623Z,980.03
2022-10-29T16:22:04.346Z,980.03
2022-10-29T16:27:36.130Z,979.99
2022-10-29T16:33:07.854Z,979.92
2022-10-29T16:38:39.645Z,979.87
2022-10-29T16:44:11.319Z,979.84
2022-10-29T16:49:42.937Z,979.79
2022-10-29T16:55:20.751Z,979.97
2022-10-29T17:00:51.974Z,980.06
2022-10-29T17:06:22.695Z,979.97
2022-10-29T17:11:54.266Z,979.92
2022-10-29T17:17:26.374Z,980.02
2022-10-29T17:22:58.099Z,980.16
2022-10-29T17:28:29.471Z,980.27
2022-10-29T17:34:01.236Z,980.3
2022-10-29T17:39:32.895Z,980.29
2022-10-29T17:45:04.978Z,980.29
2022-10-29T17:50:36.382Z,980.22
2022-10-29T17:56:12.636Z,980.24
2022-10-29T18:01:44.940Z,980.12
2022-10-29T18:07:16.103Z,980.2
2022-10-29T18:12:47.901Z,980.34
2022-10-29T18:18:20.078Z,980.19
2022-10-29T18:23:51.343Z,980.26
2022-10-29T18:29:23.233Z,980.24
2022-10-29T18:34:55.211Z,980.14
2022-10-29T18:40:26.609Z,980.09
2022-10-29T18:45:58.184Z,980.16
2022-10-29T18:51:33.054Z,980.16
2022-10-29T18:57:19.365Z,980.23
2022-10-29T19:02:42.887Z,980.25
2022-10-29T19:08:14.267Z,980.41
2022-10-29T19:13:46.056Z,980.4
2022-10-29T19:19:24.850Z,980.44
2022-10-29T19:24:50.456Z,980.64
2022-10-29T19:30:21.942Z,980.72
2022-10-29T19:35:53.795Z,980.77
2022-10-29T19:41:25.610Z,980.69
2022-10-29T19:46:57.179Z,980.65
2022-10-29T19:52:28.909Z,980.41
2022-10-29T19:58:05.099Z,980.5
2022-10-29T20:03:36.794Z,980.6
2022-10-29T20:09:08.616Z,980.5
2022-10-29T20:14:40.626Z,980.48
2022-10-29T20:20:18.128Z,980.65
2022-10-29T20:25:43.755Z,980.62
2022-10-29T20:31:15.811Z,980.73
2022-10-29T20:36:47.679Z,980.74
2022-10-29T20:42:18.937Z,980.65
2022-10-29T20:47:50.695Z,980.7
2022-10-29T20:53:22.491Z,980.66
2022-10-29T20:58:58.558Z,980.78
2022-10-29T21:04:30.342Z,980.63
2022-10-29T21:10:02.125Z,980.67
2022-10-29T21:15:33.822Z,980.63
2022-10-29T21:21:05.875Z,980.62
2022-10-29T21:26:37.235Z,980.55
2022-10-29T21:32:17.659Z,980.47
2022-10-29T21:37:40.926Z,980.57
2022-10-29T21:43:12.680Z,980.46
2022-10-29T21:48:44.265Z,980.45
2022-10-29T21:54:15.977Z,980.57
2022-10-29T21:59:53.986Z,980.64
2022-10-29T22:05:25.752Z,980.75
2022-10-29T22:10:57.480Z,980.9
2022-10-29T22:16:29.374Z,980.72
2022-10-29T22:22:01.132Z,980.77
2022-10-29T22:27:32.657Z,980.88
2022-10-29T22:33:04.372Z,980.89
2022-10-29T22:38:36.293Z,980.81
2022-10-29T22:44:07.816Z,980.89
2022-10-29T22:49:39.564Z,980.78
2022-10-29T22:55:11.222Z,980.67
2022-10-29T23:00:47.568Z,980.72
2022-10-29T23:06:19.169Z,980.78
2022-10-29T23:11:50.838Z,980.8
2022-10-29T23:17:22.415Z,980.68
2022-10-29T23:22:54.917Z,980.79
2022-10-29T23:28:25.981Z,980.77
2022-10-29T23:33:58.053Z,980.64
2022-10-29T23:39:29.504Z,980.66
2022-10-29T23:45:08.545Z,980.66
2022-10-29T23:50:33.040Z,980.79
2022-10-29T23:56:04.713Z,980.59
